< Cyclone 200003 2000 Season Cyclone 200005 >
Cyclone 200004 (LEON)
General InformationTrack Information on Google MapsDetailed Wind InformationList of All Images || ResourceGoogle EarthGE AnimationAtom FeedGeoJSON
Detalied Best Track (Time Zone = UTC)
Year Month Day Hour Lat. Long. Pressure (hPa) Wind (kt) Class Image Chart
2000 2 1 04 -10.4 115.5 1000 27 2 Image --
2000 2 1 10 -10.4 114.7 1000 27 2 Image --
2000 2 1 16 -10.4 113.9 1000 27 2 Image --
2000 2 1 22 -10.4 113.2 1000 27 2 Image --
2000 2 2 04 -10.4 112.5 1000 27 2 Image --
2000 2 2 10 -10.5 111.8 1000 27 2 Image --
2000 2 2 16 -10.7 111.2 1000 27 2 Image --
2000 2 2 22 -10.9 110.5 1000 27 2 Image --
2000 2 3 04 -11.1 109.9 1000 27 2 Image --
2000 2 3 10 -11.4 109.2 1000 27 2 Image --
2000 2 3 16 -11.7 108.1 1000 27 2 Image --
2000 2 3 22 -12.1 107.0 995 35 3 Image --
2000 2 4 04 -12.4 106.2 990 41 3 Image --
2000 2 4 10 -12.7 105.3 985 49 4 Image --
2000 2 4 16 -13.1 104.6 985 49 4 Image --
2000 2 4 22 -13.6 104.1 980 54 4 Image --
2000 2 5 04 -14.0 103.6 975 60 4 Image --
2000 2 5 10 -14.5 103.0 970 64 5 Image --
2000 2 5 16 -15.0 102.2 965 70 5 Image --
2000 2 5 22 -15.6 101.3 960 76 5 Image --
2000 2 6 04 -16.0 100.5 960 76 5 Image --
2000 2 6 10 -16.7 99.6 960 76 5 Image --
2000 2 6 16 -16.7 98.9 960 76 5 Image --
2000 2 6 22 -16.7 98.2 965 70 5 Image --
2000 2 7 04 -16.8 97.3 970 64 5 Image --
2000 2 7 10 -16.9 96.0 980 54 4 Image --
2000 2 7 16 -17.2 94.5 985 49 4 Image --
2000 2 7 22 -17.5 93.2 990 41 3 Image --
2000 2 8 04 -17.5 92.1 990 41 3 Image --
2000 2 8 10 -17.6 91.0 990 41 3 Image --
2000 2 8 16 -17.6 90.0 990 41 3 Image --
2000 2 8 22 -17.6 89.0 990 41 3 Image --
< Cyclone 200003 2000 Season Cyclone 200005 >

Help